Terminal Aerodrome Forecast
Issued by NWS Upton, NY

Home | Current Version | Previous Version | Text Only | Print | Product List | Glossary On
Versions: 1 2 3 4 5 6 7 8 9 10 11 12 13 14 15 16 17 18 19 20 21 22 23 24 25 26 27 28 29 30 31 32
367
FTUS41 KOKX 271936 AAA
TAFLGA
TAF AMD
KLGA 271936Z 2720/2818 17010G17KT P6SM FEW060 SCT250
     FM280000 16008KT P6SM FEW250
     FM280300 13004KT P6SM FEW250
     FM280900 06006KT P6SM FEW250=

USA.gov is the U.S. government's official web portal to all federal, state and local government web resources and services.